Time;durP1;ratioP1;P1;durP2;ratioP2;P2;SDS_P1;SDS_P2;PMS_P1;PMS_P2;Temp;Humidity;BMP_temperature;BMP_pressure;BME280_temperature;BME280_humidity;BME280_pressure;Samples;Min_cycle;Max_cycle;Signal;HPM_P1;HPM_P2
2022/04/15 00:01:39;;;;;;;23.45;13.27;;;;;;;6.87;100.00;100883.88;5077173;28;20052;-86
2022/04/15 00:04:04;;;;;;;24.33;12.98;;;;;;;6.85;100.00;100875.03;5076904;28;20025;-84
2022/04/15 00:06:30;;;;;;;25.52;14.05;;;;;;;6.81;100.00;100876.81;5077174;28;20029;-85
2022/04/15 00:08:56;;;;;;;21.85;13.77;;;;;;;6.80;100.00;100869.72;5100782;22;20029;-85
2022/04/15 00:11:21;;;;;;;27.00;14.20;;;;;;;6.80;100.00;100875.03;5077490;28;20063;-85
2022/04/15 00:13:47;;;;;;;28.73;15.10;;;;;;;6.85;100.00;100874.16;5077033;28;20104;-85
2022/04/15 00:16:13;;;;;;;26.00;13.88;;;;;;;6.82;100.00;100873.28;5077151;28;20031;-84
2022/04/15 00:18:39;;;;;;;22.23;13.52;;;;;;;6.84;100.00;100872.38;5077205;28;20020;-84
2022/04/15 00:21:04;;;;;;;21.65;13.43;;;;;;;6.78;100.00;100871.50;5076903;28;20035;-84
2022/04/15 00:23:30;;;;;;;27.83;14.25;;;;;;;6.76;100.00;100875.97;5076732;28;20025;-84
2022/04/15 00:25:56;;;;;;;22.98;14.13;;;;;;;6.78;100.00;100879.47;5076517;28;20019;-84
2022/04/15 00:28:22;;;;;;;26.20;13.80;;;;;;;6.79;100.00;100878.59;5076595;28;20028;-85
2022/04/15 00:30:47;;;;;;;20.10;13.00;;;;;;;6.82;100.00;100875.94;5076183;28;20036;-85
2022/04/15 00:33:13;;;;;;;25.35;13.98;;;;;;;6.80;100.00;100876.84;5076207;28;20030;-84
2022/04/15 00:35:38;;;;;;;21.33;12.85;;;;;;;6.81;100.00;100871.50;5076171;28;20078;-85
2022/04/15 00:38:04;;;;;;;23.27;12.38;;;;;;;6.73;100.00;100870.66;5076319;28;20044;-85
2022/04/15 00:40:29;;;;;;;18.48;11.52;;;;;;;6.64;100.00;100870.72;5075935;28;20031;-86
2022/04/15 00:42:55;;;;;;;20.00;11.75;;;;;;;6.65;100.00;100878.66;5076352;28;20024;-85
2022/04/15 00:45:20;;;;;;;18.90;11.10;;;;;;;6.62;100.00;100872.50;5075906;28;20024;-87
2022/04/15 00:47:52;;;;;;;19.55;11.10;;;;;;;6.65;100.00;100872.47;5076131;28;20048;-85
2022/04/15 00:50:18;;;;;;;17.48;11.27;;;;;;;6.62;100.00;100883.09;5075925;28;20024;-84
2022/04/15 00:52:46;;;;;;;18.67;11.95;;;;;;;6.58;100.00;100882.22;5075752;28;20040;-85
2022/04/15 00:55:13;;;;;;;21.75;13.07;;;;;;;6.58;100.00;100887.53;5075929;28;20488;-85
2022/04/15 00:57:45;;;;;;;24.80;12.32;;;;;;;6.57;100.00;100883.97;5075842;28;20358;-84
2022/04/15 01:00:12;;;;;;;23.80;13.05;;;;;;;6.58;100.00;100887.53;5075585;28;20020;-86
2022/04/15 01:02:38;;;;;;;22.95;13.10;;;;;;;6.57;100.00;100881.34;5075511;28;20040;-84
2022/04/15 01:05:07;;;;;;;19.80;12.00;;;;;;;6.51;100.00;100888.44;5075486;28;20096;-84
2022/04/15 01:07:55;;;;;;;24.83;12.20;;;;;;;6.53;100.00;100890.19;5074179;28;20067;-84
2022/04/15 01:10:21;;;;;;;23.73;12.00;;;;;;;6.52;100.00;100892.88;5075256;28;20028;-84
2022/04/15 01:12:51;;;;;;;21.80;13.23;;;;;;;6.52;100.00;100896.38;5075164;28;20025;-85
2022/04/15 01:15:19;;;;;;;21.15;12.05;;;;;;;6.44;100.00;100891.09;5075642;28;20418;-87
2022/04/15 01:17:44;;;;;;;19.52;12.23;;;;;;;6.49;100.00;100893.75;5075722;28;20029;-85
2022/04/15 01:20:11;;;;;;;21.33;12.20;;;;;;;6.46;100.00;100893.78;5075309;28;20024;-86
2022/04/15 01:22:39;;;;;;;24.42;15.18;;;;;;;6.42;100.00;100897.31;5075849;28;20154;-86
2022/04/15 01:25:10;;;;;;;31.13;18.85;;;;;;;6.43;100.00;100888.47;5075282;28;20036;-85
2022/04/15 01:27:39;;;;;;;19.92;12.35;;;;;;;6.36;100.00;100893.81;5075748;28;20024;-84
2022/04/15 01:30:07;;;;;;;21.67;11.75;;;;;;;6.37;100.00;100908.81;5076617;28;20033;-85
2022/04/15 01:32:32;;;;;;;27.58;15.13;;;;;;;6.38;100.00;100901.75;5075399;28;20053;-90
2022/04/15 01:34:58;;;;;;;24.13;13.23;;;;;;;6.35;100.00;100900.00;5076080;28;20020;-88
2022/04/15 01:37:23;;;;;;;20.80;13.05;;;;;;;6.33;100.00;100903.53;5076059;28;20039;-87
2022/04/15 01:39:50;;;;;;;21.50;12.30;;;;;;;6.34;100.00;100898.22;5075069;28;20028;-85
2022/04/15 01:42:17;;;;;;;22.58;12.80;;;;;;;6.35;100.00;100897.34;5076035;28;20025;-85
2022/04/15 01:44:43;;;;;;;24.17;13.60;;;;;;;6.33;100.00;100899.13;5073827;28;20024;-86
2022/04/15 01:47:09;;;;;;;24.10;13.90;;;;;;;6.31;100.00;100903.53;5076286;28;20077;-86
2022/04/15 01:49:35;;;;;;;23.42;15.02;;;;;;;6.33;100.00;100893.81;5075429;28;20544;-87
2022/04/15 01:52:00;;;;;;;23.23;15.07;;;;;;;6.32;100.00;100897.34;5073597;28;20111;-86
2022/04/15 01:54:29;;;;;;;27.95;14.73;;;;;;;6.31;100.00;100897.34;5075237;28;20080;-87
2022/04/15 01:56:55;;;;;;;23.08;14.65;;;;;;;6.30;100.00;100903.53;5074182;28;20062;-88
2022/04/15 01:59:21;;;;;;;28.00;16.35;;;;;;;6.30;100.00;100903.53;5074841;28;20115;-86
2022/04/15 02:01:46;;;;;;;28.15;16.83;;;;;;;6.19;100.00;100903.53;5075347;28;20024;-88
2022/04/15 02:04:12;;;;;;;34.67;17.50;;;;;;;6.18;100.00;100907.09;5074744;28;20032;-87
2022/04/15 02:06:37;;;;;;;37.85;18.20;;;;;;;6.11;100.00;100899.13;5073691;28;20025;-86
2022/04/15 02:09:03;;;;;;;40.30;20.52;;;;;;;6.13;100.00;100909.75;5074766;28;20113;-85
2022/04/15 02:11:28;;;;;;;40.80;21.17;;;;;;;6.09;100.00;100911.53;5074876;28;20039;-86
2022/04/15 02:13:53;;;;;;;36.38;19.35;;;;;;;6.06;100.00;100908.84;5075222;28;20024;-87
2022/04/15 02:16:18;;;;;;;35.38;18.85;;;;;;;6.05;100.00;100904.44;5074396;28;20066;-88
2022/04/15 02:18:44;;;;;;;39.83;20.38;;;;;;;6.04;100.00;100907.97;5074708;28;20035;-87
2022/04/15 02:21:09;;;;;;;36.35;18.45;;;;;;;6.04;100.00;100907.97;5074315;28;20377;-86
2022/04/15 02:23:34;;;;;;;30.63;15.95;;;;;;;6.02;100.00;100910.63;5074840;28;20020;-88
2022/04/15 02:25:59;;;;;;;28.77;15.50;;;;;;;6.01;100.00;100913.25;5074471;28;20025;-88
2022/04/15 02:28:25;;;;;;;30.15;15.13;;;;;;;6.05;100.00;100923.00;5075300;28;20027;-90
2022/04/15 02:30:50;;;;;;;27.95;14.40;;;;;;;6.04;100.00;100911.50;5076518;28;20043;-89
2022/04/15 02:33:15;;;;;;;26.23;14.65;;;;;;;6.07;100.00;100913.31;5074918;28;20025;-87
2022/04/15 02:35:41;;;;;;;29.40;15.38;;;;;;;6.10;100.00;100913.31;5074702;28;20017;-88
2022/04/15 02:38:07;;;;;;;33.42;16.77;;;;;;;6.07;100.00;100921.25;5074055;28;20036;-86
2022/04/15 02:40:32;;;;;;;32.15;17.38;;;;;;;6.11;100.00;100920.34;5073848;28;20021;-88
2022/04/15 02:42:59;;;;;;;31.70;17.95;;;;;;;6.11;100.00;100920.34;5074069;28;20069;-89
2022/04/15 02:45:24;;;;;;;33.60;18.80;;;;;;;6.14;100.00;100916.81;5074067;28;20031;-87
2022/04/15 02:47:50;;;;;;;33.25;17.10;;;;;;;6.16;100.00;100922.13;5074631;28;20024;-88
2022/04/15 02:50:15;;;;;;;33.88;18.40;;;;;;;6.11;100.00;100919.47;5076117;28;20020;-89
2022/04/15 02:52:41;;;;;;;29.80;17.17;;;;;;;6.10;100.00;100918.59;5078339;28;20020;-88
2022/04/15 02:55:06;;;;;;;29.85;16.58;;;;;;;6.07;100.00;100926.56;5077817;28;20025;-86
2022/04/15 02:57:32;;;;;;;28.88;17.50;;;;;;;6.08;100.00;100928.31;5076243;28;20070;-87
2022/04/15 02:59:58;;;;;;;26.75;14.98;;;;;;;6.10;100.00;100928.31;5074441;28;20381;-91
2022/04/15 03:02:24;;;;;;;22.70;13.98;;;;;;;6.04;100.00;100929.16;5075625;28;20028;-89
2022/04/15 03:04:49;;;;;;;21.40;12.70;;;;;;;6.00;100.00;100932.72;5074517;28;20017;-88
2022/04/15 03:07:14;;;;;;;18.98;11.82;;;;;;;5.96;100.00;100928.28;5074391;28;20024;-90
2022/04/15 03:09:40;;;;;;;21.33;12.70;;;;;;;5.93;100.00;100934.47;5074341;28;20024;-89
2022/04/15 03:12:05;;;;;;;19.67;12.07;;;;;;;5.88;100.00;100933.59;5074836;28;20393;-88
2022/04/15 03:14:31;;;;;;;21.10;11.95;;;;;;;5.88;100.00;100939.78;5074446;28;20020;-86
2022/04/15 03:16:56;;;;;;;18.63;11.15;;;;;;;5.83;100.00;100933.59;5073999;28;20051;-88
2022/04/15 03:19:21;;;;;;;18.42;10.32;;;;;;;5.78;100.00;100935.34;5073887;28;20450;-87
2022/04/15 03:21:47;;;;;;;16.98;9.85;;;;;;;5.75;100.00;100940.66;5074387;28;20024;-88
2022/04/15 03:24:12;;;;;;;15.98;10.35;;;;;;;5.75;100.00;100945.94;5073410;28;20103;-87
2022/04/15 03:26:37;;;;;;;24.08;11.13;;;;;;;5.75;100.00;100943.28;5073245;28;20035;-86
2022/04/15 03:29:05;;;;;;;16.83;10.18;;;;;;;5.73;100.00;100939.75;5073186;28;20032;-87
2022/04/15 03:31:30;;;;;;;18.35;11.48;;;;;;;5.73;100.00;100939.75;5071649;28;20038;-86
2022/04/15 03:33:55;;;;;;;15.48;10.15;;;;;;;5.75;100.00;100930.03;5071470;28;20391;-86
2022/04/15 03:36:21;;;;;;;15.35;10.48;;;;;;;5.80;100.00;100925.63;5073042;28;20048;-85
2022/04/15 03:38:46;;;;;;;19.15;11.60;;;;;;;5.85;100.00;100931.81;5072916;28;20043;-86
2022/04/15 03:41:12;;;;;;;18.38;11.45;;;;;;;5.86;100.00;100927.41;5073162;28;20044;-85
2022/04/15 03:43:37;;;;;;;19.90;12.63;;;;;;;5.88;100.00;100934.47;5073503;28;20044;-86
2022/04/15 03:46:03;;;;;;;15.98;10.77;;;;;;;5.85;100.00;100936.25;5073584;28;20024;-85
2022/04/15 03:48:28;;;;;;;16.75;10.88;;;;;;;5.86;100.00;100938.91;5073501;28;20028;-86
2022/04/15 03:50:54;;;;;;;17.90;10.15;;;;;;;5.90;100.00;100938.00;5071651;28;20024;-86
2022/04/15 03:53:20;;;;;;;14.63;10.38;;;;;;;5.85;100.00;100944.22;5072745;28;20032;-85
2022/04/15 03:55:45;;;;;;;14.68;9.43;;;;;;;5.80;100.00;100941.53;5072359;28;20107;-87
2022/04/15 03:58:16;;;;;;;15.93;9.55;;;;;;;5.84;100.00;100939.78;5073029;28;20112;-85
2022/04/15 04:00:42;;;;;;;15.57;9.57;;;;;;;5.81;100.00;100941.56;5071627;28;20477;-85
2022/04/15 04:03:11;;;;;;;14.68;9.85;;;;;;;5.88;100.00;100944.19;5071839;28;20028;-86
2022/04/15 04:05:36;;;;;;;14.20;9.55;;;;;;;5.87;100.00;100942.44;5072821;28;20025;-86
2022/04/15 04:08:02;;;;;;;14.45;9.60;;;;;;;5.84;100.00;100939.78;5073354;28;20021;-85
2022/04/15 04:10:27;;;;;;;15.35;10.52;;;;;;;5.83;100.00;100957.44;5071589;28;20029;-85
2022/04/15 04:12:52;;;;;;;15.63;9.10;;;;;;;5.86;100.00;100949.50;5071973;28;20020;-85
2022/04/15 04:15:18;;;;;;;16.75;10.30;;;;;;;5.84;100.00;100953.94;5072520;28;20274;-85
2022/04/15 04:17:44;;;;;;;13.57;9.80;;;;;;;5.78;100.00;100948.59;5071389;28;20572;-85
2022/04/15 04:20:12;;;;;;;14.88;9.38;;;;;;;5.86;100.00;100956.56;5071789;28;20388;-84
2022/04/15 04:22:38;;;;;;;13.25;9.68;;;;;;;5.84;100.00;100955.69;5071326;28;20031;-86
2022/04/15 04:25:08;;;;;;;14.05;9.55;;;;;;;5.79;100.00;100968.94;5071493;28;20028;-84
2022/04/15 04:27:38;;;;;;;15.18;9.82;;;;;;;5.79;100.00;100966.28;5071397;28;20027;-85
2022/04/15 04:30:05;;;;;;;16.60;10.23;;;;;;;5.75;100.00;100973.34;5071427;28;20020;-85
2022/04/15 04:32:30;;;;;;;15.63;10.38;;;;;;;5.74;100.00;100979.53;5071460;28;20032;-84
2022/04/15 04:34:56;;;;;;;16.67;11.68;;;;;;;5.75;100.00;100977.75;5072557;28;20017;-85
2022/04/15 04:37:21;;;;;;;16.42;11.57;;;;;;;5.65;100.00;100980.41;5072403;28;20111;-87
2022/04/15 04:39:46;;;;;;;19.10;12.48;;;;;;;5.66;100.00;100984.81;5072682;28;20048;-88
2022/04/15 04:42:12;;;;;;;21.27;12.00;;;;;;;5.57;100.00;100976.84;5072486;28;20028;-85
2022/04/15 04:44:39;;;;;;;20.48;12.73;;;;;;;5.64;100.00;100983.94;5072015;28;20465;-86
2022/04/15 04:47:09;;;;;;;18.73;12.25;;;;;;;5.60;100.00;100990.09;5075536;28;20024;-88
2022/04/15 04:49:36;;;;;;;19.80;12.73;;;;;;;5.57;100.00;100992.75;5077047;28;20032;-88
2022/04/15 04:52:02;;;;;;;18.90;12.63;;;;;;;5.62;100.00;100998.94;5077702;28;20035;-89
2022/04/15 04:54:28;;;;;;;17.75;12.60;;;;;;;5.69;100.00;101003.38;5076624;28;20023;-87
2022/04/15 04:56:53;;;;;;;19.33;12.68;;;;;;;5.79;100.00;101003.41;5075782;28;20024;-88
2022/04/15 04:59:22;;;;;;;16.80;12.07;;;;;;;5.72;100.00;101012.22;5076402;28;20046;-86
2022/04/15 05:01:47;;;;;;;19.55;11.45;;;;;;;5.76;100.00;101013.97;5075291;28;20031;-87
2022/04/15 05:04:12;;;;;;;15.93;11.20;;;;;;;5.79;100.00;101019.28;5074350;28;20400;-86
2022/04/15 05:06:38;;;;;;;18.05;11.48;;;;;;;5.67;100.00;101026.31;5075915;28;20032;-86
2022/04/15 05:09:03;;;;;;;21.67;12.07;;;;;;;5.65;100.00;101020.16;5075751;28;20441;-85
2022/04/15 05:11:28;;;;;;;18.35;11.38;;;;;;;5.64;100.00;101028.09;5074670;28;20089;-87
2022/04/15 05:13:54;;;;;;;19.33;11.38;;;;;;;5.58;100.00;101029.84;5074424;28;20026;-86
2022/04/15 05:16:19;;;;;;;17.98;11.50;;;;;;;5.55;100.00;101034.25;5076958;28;20584;-86
2022/04/15 05:18:44;;;;;;;18.35;11.50;;;;;;;5.56;100.00;101025.44;5075042;28;20512;-87
2022/04/15 05:21:10;;;;;;;16.95;11.45;;;;;;;5.60;100.00;101035.16;5075499;28;20020;-86
2022/04/15 05:23:35;;;;;;;19.30;11.63;;;;;;;5.59;100.00;101038.69;5075541;28;20028;-87
2022/04/15 05:26:01;;;;;;;14.50;10.77;;;;;;;5.56;100.00;101038.69;5075454;28;20439;-88
2022/04/15 05:28:26;;;;;;;18.60;11.10;;;;;;;5.58;100.00;101036.91;5076074;28;20103;-86
2022/04/15 05:30:51;;;;;;;16.17;10.63;;;;;;;5.60;100.00;101035.16;5075309;28;20029;-86
2022/04/15 05:33:17;;;;;;;16.67;11.35;;;;;;;5.59;100.00;101038.69;5074079;28;20218;-87
2022/04/15 05:35:42;;;;;;;20.70;11.30;;;;;;;5.57;100.00;101040.44;5075201;28;20019;-86
2022/04/15 05:38:08;;;;;;;17.85;10.95;;;;;;;5.60;100.00;101045.75;5073884;28;20024;-85
2022/04/15 05:40:34;;;;;;;17.67;11.70;;;;;;;5.65;100.00;101048.41;5073656;28;20021;-85
2022/04/15 05:42:59;;;;;;;19.92;10.77;;;;;;;5.62;100.00;101051.94;5074215;28;20028;-85
2022/04/15 05:45:25;;;;;;;18.35;11.25;;;;;;;5.59;100.00;101051.94;5073598;28;20174;-85
2022/04/15 05:47:53;;;;;;;17.42;10.70;;;;;;;5.60;100.00;101051.03;5073808;28;20028;-85
2022/04/15 05:50:19;;;;;;;17.65;11.13;;;;;;;5.63;100.00;101064.31;5073640;28;20028;-86
2022/04/15 05:52:44;;;;;;;18.20;10.77;;;;;;;5.61;100.00;101063.41;5075267;28;20081;-84
2022/04/15 05:55:10;;;;;;;16.15;10.75;;;;;;;5.63;100.00;101069.59;5075174;28;20017;-84
2022/04/15 05:57:35;;;;;;;16.25;10.77;;;;;;;5.62;100.00;101069.63;5073043;28;20016;-84
2022/04/15 06:00:00;;;;;;;16.88;10.82;;;;;;;5.64;100.00;101068.75;5074849;28;20341;-85
2022/04/15 06:02:26;;;;;;;15.52;9.77;;;;;;;5.61;100.00;101073.13;5075001;28;20032;-86
2022/04/15 06:04:51;;;;;;;17.52;10.90;;;;;;;5.66;100.00;101069.63;5073908;28;20465;-86
2022/04/15 06:07:16;;;;;;;17.63;10.20;;;;;;;5.72;100.00;101067.88;5073676;28;20166;-86
2022/04/15 06:09:42;;;;;;;16.30;9.82;;;;;;;5.72;100.00;101070.53;5112785;22;20052;-85
2022/04/15 06:12:08;;;;;;;16.40;9.45;;;;;;;5.72;100.00;101078.47;5080734;28;20044;-85
2022/04/15 06:15:27;;;;;;;15.07;10.07;;;;;;;5.77;100.00;101079.38;5078603;28;20021;-86
2022/04/15 06:17:53;;;;;;;14.77;8.85;;;;;;;5.77;100.00;101074.94;5021963;28;20108;-86
2022/04/15 06:20:18;;;;;;;13.85;9.05;;;;;;;5.82;100.00;101082.91;5040173;28;20122;-85
2022/04/15 06:22:44;;;;;;;14.77;9.65;;;;;;;5.84;100.00;101086.44;5047853;28;20045;-86
2022/04/15 06:25:17;;;;;;;11.35;8.35;;;;;;;5.85;100.00;101097.94;5054861;28;20089;-83
2022/04/15 06:27:42;;;;;;;12.90;7.95;;;;;;;5.93;100.00;101091.75;5054940;28;20036;-87
2022/04/15 06:30:08;;;;;;;14.48;8.75;;;;;;;5.97;100.00;101099.72;5054667;28;20032;-86
2022/04/15 06:32:37;;;;;;;13.13;8.98;;;;;;;5.93;100.00;101102.38;5056872;28;20470;-88
2022/04/15 06:35:06;;;;;;;17.58;10.00;;;;;;;6.02;100.00;101104.16;5054508;28;20025;-87
2022/04/15 06:37:32;;;;;;;16.75;10.73;;;;;;;6.04;100.00;101109.47;5054329;28;20020;-88
2022/04/15 06:39:57;;;;;;;18.42;11.25;;;;;;;6.04;100.00;101114.75;5053956;28;20401;-83
2022/04/15 06:42:24;;;;;;;22.23;12.57;;;;;;;6.06;100.00;101115.66;5055697;28;20029;-88
2022/04/15 06:44:50;;;;;;;27.52;14.43;;;;;;;6.12;100.00;101113.06;5054918;28;20029;-88
2022/04/15 06:47:16;;;;;;;29.98;16.80;;;;;;;6.17;100.00;101115.72;5056112;28;20381;-88
2022/04/15 06:49:42;;;;;;;30.90;16.27;;;;;;;6.20;100.00;101122.78;5054979;28;20482;-87
2022/04/15 06:52:08;;;;;;;25.45;14.25;;;;;;;6.16;100.00;101129.84;5053434;28;20021;-88
2022/04/15 06:54:34;;;;;;;23.15;11.85;;;;;;;6.12;100.00;101130.72;5054111;28;20078;-87
2022/04/15 06:56:59;;;;;;;28.20;14.32;;;;;;;6.07;100.00;101141.34;5054539;28;20020;-86
2022/04/15 06:59:25;;;;;;;26.48;14.30;;;;;;;6.11;100.00;101131.59;5055683;28;20024;-87
2022/04/15 07:01:50;;;;;;;21.92;12.63;;;;;;;6.10;100.00;101141.34;5053664;28;20082;-87
2022/04/15 07:04:20;;;;;;;23.42;12.82;;;;;;;6.17;100.00;101144.00;5054961;28;20089;-89
2022/04/15 07:07:10;;;;;;;22.70;12.70;;;;;;;6.10;100.00;101136.03;5055590;28;20116;-88
2022/04/15 07:09:35;;;;;;;19.88;12.32;;;;;;;6.13;100.00;101138.69;5053794;28;20119;-87
2022/04/15 07:12:32;;;;;;;26.83;12.55;;;;;;;6.19;100.00;101134.25;5052928;28;20067;-87
2022/04/15 07:15:30;;;;;;;18.98;12.20;;;;;;;6.23;100.00;101136.06;5052549;28;20440;-86
2022/04/15 07:17:59;;;;;;;16.75;10.10;;;;;;;6.40;100.00;101137.84;5054626;28;20088;-86
2022/04/15 07:20:25;;;;;;;12.02;8.93;;;;;;;6.51;100.00;101135.19;5053388;28;20021;-87
2022/04/15 07:22:58;;;;;;;13.15;9.13;;;;;;;6.65;100.00;101143.19;5054391;28;20032;-88
2022/04/15 07:25:24;;;;;;;16.33;9.48;;;;;;;6.67;100.00;101137.00;5054627;28;20108;-87
2022/04/15 07:27:50;;;;;;;13.77;8.90;;;;;;;6.70;100.00;101146.72;5054260;28;20017;-87
2022/04/15 07:30:17;;;;;;;15.80;8.52;;;;;;;6.82;100.00;101137.88;5052805;28;20028;-88
2022/04/15 07:32:42;;;;;;;14.25;9.25;;;;;;;6.97;100.00;101136.06;5052932;28;20028;-87
2022/04/15 07:35:08;;;;;;;13.55;9.32;;;;;;;6.91;100.00;101144.91;5053977;28;20466;-87
2022/04/15 07:37:33;;;;;;;14.73;8.70;;;;;;;6.88;100.00;101150.25;5052684;28;20062;-86
2022/04/15 07:39:59;;;;;;;13.63;7.97;;;;;;;7.08;100.00;101147.56;5052870;28;20162;-87
2022/04/15 07:42:24;;;;;;;13.52;8.32;;;;;;;7.32;100.00;101144.88;5053412;28;20096;-86
2022/04/15 07:44:49;;;;;;;11.27;7.65;;;;;;;7.31;100.00;101148.41;5053524;28;20085;-86
2022/04/15 07:47:15;;;;;;;10.90;7.60;;;;;;;7.39;100.00;101154.59;5054306;28;20029;-86
2022/04/15 07:49:41;;;;;;;13.27;7.65;;;;;;;7.47;100.00;101166.06;5053683;28;20473;-86
2022/04/15 07:52:07;;;;;;;12.02;7.72;;;;;;;7.47;100.00;101173.19;5052613;28;20025;-85
2022/04/15 07:54:33;;;;;;;9.95;7.07;;;;;;;7.40;100.00;101174.06;5052740;28;20021;-86
2022/04/15 07:56:58;;;;;;;10.35;5.90;;;;;;;7.32;100.00;101176.75;5053952;28;20023;-85
2022/04/15 07:59:24;;;;;;;7.82;5.50;;;;;;;7.19;100.00;101178.56;5053466;28;20112;-87
2022/04/15 08:01:49;;;;;;;9.15;5.75;;;;;;;7.28;100.00;101167.91;5052496;28;20025;-86
2022/04/15 08:04:14;;;;;;;10.00;6.20;;;;;;;7.47;100.00;101175.84;5052526;28;20025;-87
2022/04/15 08:06:40;;;;;;;8.43;6.03;;;;;;;7.48;100.00;101169.59;5052807;28;20021;-86
2022/04/15 08:09:05;;;;;;;9.85;6.20;;;;;;;7.30;100.00;101178.50;5052998;28;20509;-86
2022/04/15 08:11:31;;;;;;;10.93;6.40;;;;;;;7.39;100.00;101178.50;5054308;28;20115;-87
2022/04/15 08:13:56;;;;;;;10.93;6.70;;;;;;;7.53;100.00;101190.84;5052737;28;20025;-87
2022/04/15 08:16:23;;;;;;;10.88;6.63;;;;;;;7.41;100.00;101190.00;5052448;28;20506;-84
2022/04/15 08:18:49;;;;;;;8.68;6.50;;;;;;;7.52;100.00;101189.09;5054190;28;20517;-86
2022/04/15 08:21:15;;;;;;;10.35;6.35;;;;;;;7.74;100.00;101195.22;5056420;28;20025;-86
2022/04/15 08:23:40;;;;;;;9.73;7.05;;;;;;;7.66;100.00;101197.91;5056556;28;20056;-86
2022/04/15 08:26:06;;;;;;;9.27;6.57;;;;;;;7.77;100.00;101197.00;5056379;28;20210;-86
2022/04/15 08:28:31;;;;;;;9.13;6.60;;;;;;;7.72;100.00;101199.66;5056527;28;20070;-86
2022/04/15 08:30:57;;;;;;;10.18;6.85;;;;;;;7.67;100.00;101199.69;5056420;28;20520;-85
2022/04/15 08:33:23;;;;;;;10.40;6.72;;;;;;;7.71;100.00;101197.88;5056351;28;20029;-89
2022/04/15 08:35:49;;;;;;;9.40;6.82;;;;;;;7.45;100.00;101205.03;5057012;28;20025;-88
2022/04/15 08:38:14;;;;;;;8.82;6.50;;;;;;;7.36;100.00;101205.97;5057681;28;20090;-86
2022/04/15 08:40:45;;;;;;;11.77;7.30;;;;;;;7.41;100.00;101207.72;5059063;28;20032;-84
2022/04/15 08:43:11;;;;;;;9.98;6.97;;;;;;;7.40;100.00;101205.94;5060281;28;20032;-85
2022/04/15 08:45:41;;;;;;;11.38;7.40;;;;;;;7.41;100.00;101208.63;5058761;28;20025;-86
2022/04/15 08:48:07;;;;;;;10.90;7.13;;;;;;;7.47;100.00;101205.94;5057413;28;20033;-85
2022/04/15 08:50:33;;;;;;;9.38;6.53;;;;;;;7.34;100.00;101213.06;5055419;28;20031;-86
2022/04/15 08:52:59;;;;;;;8.55;6.18;;;;;;;7.46;100.00;101211.25;5056757;28;20107;-86
2022/04/15 08:55:27;;;;;;;8.10;6.13;;;;;;;7.57;100.00;101213.91;5058752;28;20021;-87
2022/04/15 08:57:53;;;;;;;8.93;6.35;;;;;;;7.59;100.00;101212.13;5057914;28;20025;-86
2022/04/15 09:00:20;;;;;;;9.35;6.13;;;;;;;7.58;100.00;101215.66;5057205;28;20490;-87
2022/04/15 09:02:46;;;;;;;9.73;5.93;;;;;;;7.62;100.00;101213.88;5058182;28;20074;-88
2022/04/15 09:05:12;;;;;;;10.07;5.68;;;;;;;7.89;100.00;101219.97;5057447;28;20424;-86
2022/04/15 09:07:38;;;;;;;7.05;4.97;;;;;;;8.03;100.00;101217.28;5057574;28;20039;-86
2022/04/15 09:10:11;;;;;;;6.05;4.70;;;;;;;8.35;100.00;101218.88;5055229;28;20021;-85
2022/04/15 09:12:37;;;;;;;6.45;4.53;;;;;;;8.88;100.00;101228.34;5056204;28;20025;-88
2022/04/15 09:15:09;;;;;;;7.28;5.38;;;;;;;8.66;100.00;101227.63;5055968;28;20029;-86
2022/04/15 09:17:35;;;;;;;7.00;4.60;;;;;;;8.82;100.00;101233.69;5057640;28;20025;-86
2022/04/15 09:20:02;;;;;;;9.15;6.00;;;;;;;8.50;100.00;101238.34;5057321;28;20128;-88
2022/04/15 09:22:28;;;;;;;11.25;6.63;;;;;;;8.20;100.00;101249.13;5056479;28;20482;-88
2022/04/15 09:24:53;;;;;;;12.15;6.88;;;;;;;8.22;100.00;101247.31;5057481;28;20025;-89
2022/04/15 09:27:23;;;;;;;9.45;6.10;;;;;;;7.98;100.00;101261.63;5058055;28;20032;-86
2022/04/15 09:29:50;;;;;;;10.70;7.28;;;;;;;8.33;100.00;101252.59;5059918;28;20025;-84
2022/04/15 09:32:17;;;;;;;13.60;8.80;;;;;;;8.38;100.00;101252.56;5061890;28;20021;-86
2022/04/15 09:35:06;;;;;;;11.43;8.02;;;;;;;8.02;100.00;101258.94;5060312;28;20025;-86
2022/04/15 09:37:39;;;;;;;14.13;8.15;;;;;;;7.86;100.00;101252.78;5061457;28;20031;-86
2022/04/15 09:40:14;;;;;;;12.18;7.72;;;;;;;7.81;100.00;101249.25;5060370;28;20530;-85
2022/04/15 09:42:54;;;;;;;10.65;7.47;;;;;;;7.68;100.00;101259.06;5059885;28;20120;-86
2022/04/15 09:45:27;;;;;;;12.00;7.30;;;;;;;7.70;100.00;101257.28;5060037;28;20021;-86
2022/04/15 09:47:53;;;;;;;11.90;7.70;;;;;;;7.85;100.00;101258.13;5059559;28;20025;-86
2022/04/15 09:50:28;;;;;;;10.63;7.82;;;;;;;7.87;100.00;101265.22;5060268;28;20086;-86
2022/04/15 09:53:19;;;;;;;10.93;6.68;;;;;;;7.94;100.00;101266.94;5059337;28;20064;-86
2022/04/15 09:55:47;;;;;;;10.95;7.47;;;;;;;8.13;100.00;101266.91;5053015;28;20029;-86
2022/04/15 09:58:13;;;;;;;9.73;6.63;;;;;;;8.26;100.00;101266.84;5061070;28;20045;-86
2022/04/15 10:00:41;;;;;;;9.30;6.80;;;;;;;8.38;100.00;101260.56;5061640;28;20030;-84
2022/04/15 10:03:14;;;;;;;9.48;6.22;;;;;;;8.64;100.00;101269.31;5057170;28;20497;-86
2022/04/15 10:05:41;;;;;;;9.65;6.07;;;;;;;8.85;100.00;101268.31;5058120;28;20379;-87
2022/04/15 10:08:08;;;;;;;12.20;6.93;;;;;;;8.73;100.00;101266.63;5059656;28;20103;-87
2022/04/15 10:10:34;;;;;;;11.93;7.43;;;;;;;8.51;100.00;101277.34;5061011;28;20099;-86
2022/04/15 10:13:06;;;;;;;11.23;7.57;;;;;;;8.38;100.00;101277.41;5062298;28;20445;-86
2022/04/15 10:15:32;;;;;;;12.15;7.72;;;;;;;8.47;100.00;101264.97;5060647;28;20385;-86
2022/04/15 10:18:13;;;;;;;12.02;7.20;;;;;;;8.40;100.00;101279.19;5060280;28;20104;-86
2022/04/15 10:20:38;;;;;;;9.05;6.68;;;;;;;8.27;100.00;101279.25;5062478;28;20033;-86
2022/04/15 10:23:06;;;;;;;9.63;6.80;;;;;;;8.33;100.00;101273.91;5061781;28;20021;-86
2022/04/15 10:25:33;;;;;;;10.75;7.28;;;;;;;8.24;100.00;101276.59;5061506;28;20021;-86
2022/04/15 10:28:19;;;;;;;11.23;7.10;;;;;;;8.04;100.00;101282.91;5060704;28;20017;-86
2022/04/15 10:30:52;;;;;;;12.05;7.28;;;;;;;7.97;100.00;101287.34;5060228;28;20032;-87
2022/04/15 10:33:28;;;;;;;10.68;7.18;;;;;;;8.05;100.00;101279.31;5060536;28;20033;-87
2022/04/15 10:36:09;;;;;;;9.30;6.03;;;;;;;8.16;100.00;101277.53;5061615;28;20079;-88
2022/04/15 10:38:34;;;;;;;11.27;6.25;;;;;;;8.22;100.00;101273.94;5057949;28;20021;-86
2022/04/15 10:41:13;;;;;;;10.43;6.38;;;;;;;8.32;100.00;101277.47;5058018;28;20035;-86
2022/04/15 10:43:55;;;;;;;8.90;5.82;;;;;;;8.50;100.00;101272.94;5058917;28;20025;-85
2022/04/15 10:46:30;;;;;;;8.98;6.10;;;;;;;8.58;100.00;101279.13;5061716;28;20021;-86
2022/04/15 10:49:20;;;;;;;8.43;5.70;;;;;;;8.60;100.00;101285.34;5060418;28;20020;-86
2022/04/15 10:51:45;;;;;;;7.63;5.30;;;;;;;8.54;100.00;101288.00;5059819;28;20037;-87
2022/04/15 10:54:36;;;;;;;8.55;5.55;;;;;;;8.60;100.00;101292.44;5059924;28;20024;-87
2022/04/15 10:57:14;;;;;;;7.70;5.60;;;;;;;8.59;100.00;101288.00;5059313;28;20379;-86
2022/04/15 11:02:51;;;;;;;8.77;5.60;;;;;;;8.47;100.00;101299.56;5060189;28;20082;-87
2022/04/15 11:05:35;;;;;;;9.48;5.47;;;;;;;8.39;100.00;101294.28;5061832;28;20025;-87
2022/04/15 11:08:11;;;;;;;7.78;5.20;;;;;;;8.38;100.00;101297.81;5060438;28;20074;-86
2022/04/15 11:10:40;;;;;;;9.32;5.00;;;;;;;8.34;100.00;101296.97;5061295;28;20033;-87
2022/04/15 11:13:07;;;;;;;7.47;4.47;;;;;;;8.38;100.00;101301.38;5064143;28;20035;-86
2022/04/15 11:15:56;;;;;;;6.95;4.82;;;;;;;8.61;100.00;101296.84;5056754;28;20075;-85
2022/04/15 11:18:21;;;;;;;8.43;5.80;;;;;;;8.64;100.00;101298.59;5055298;28;20371;-85
2022/04/15 11:20:47;;;;;;;8.57;5.55;;;;;;;8.71;100.00;101300.38;5056519;28;20090;-86